Flight Track Log - Related Links

Times and Time Zones

All times are in EDT time to prevent confusion due to time zone crossing. See the DAL2213 flight status page for this flight to view local times or setup timezone preferences in your user account.

Time Position Orientation Groundspeed Altitude Reporting Facility
EDT Latitude Longitude Course Direction KTS MPH feet Rate Location/Type
Tue 01:19:42 PM 33.6269 -84.3631 180° South 439 505 2,900  Level Atlanta Center
Tue 01:20:42 PM 33.5958 -84.2883 117° Southeast 333 383 5,500 2,550 Climbing Atlanta Center
Tue 01:21:00 PM 33.3803 -84.2636 140° Southeast  Level FlightAware Approximate
Tue 01:21:42 PM 33.5228 -84.2806 175° South 297 342 8,000  Level Atlanta Center
Tue 01:22:00 PM 33.2897 -84.1728 140° Southeast  Level FlightAware Approximate
Tue 01:22:42 PM 33.4475 -84.2778 178° South 286 329 10,900  Level Atlanta Center
Tue 01:23:00 PM 33.1990 -84.0821 140° Southeast  Level FlightAware Approximate
Tue 01:23:42 PM 33.3619 -84.2553 168° South 301 346 12,200  Level Atlanta Center
Tue 01:24:00 PM 33.1056 -84.0000 180° South  Level FlightAware Approximate
Tue 01:24:42 PM 33.2828 -84.1731 139° Southeast 360 414 13,700  Level Atlanta Center
Tue 01:25:42 PM 33.1931 -84.0836 140° Southeast 394 453 16,100 2,200 Climbing Atlanta Center
Tue 01:26:42 PM 33.1033 -83.9992 142° Southeast 414 476 18,100 2,000 Climbing Atlanta Center
Tue 01:27:42 PM 32.9969 -83.9050 143° Southeast 422 486 20,100 1,850 Climbing Atlanta Center
Tue 01:28:42 PM 32.8944 -83.8161 144° Southeast 442 509 21,800 1,500 Climbing Atlanta Center
Tue 01:29:42 PM 32.8025 -83.7422 146° Southeast 448 516 23,100 1,650 Climbing Atlanta Center
Tue 01:30:42 PM 32.6958 -83.6539 145° Southeast 453 521 25,100 2,050 Climbing Atlanta Center
Tue 01:31:42 PM 32.6014 -83.5606 140° Southeast 453 521 27,200 1,850 Climbing Atlanta Center
Tue 01:32:42 PM 32.5072 -83.4650 139° Southeast 448 516 28,800 1,597 Climbing Atlanta Center
Tue 01:34:01 PM 32.3703 -83.3256 139° Southeast 442 509 30,900 1,295 Climbing Jacksonville Center
Tue 01:35:01 PM 32.2831 -83.2392 140° Southeast 425 489 31,800 550 Climbing Jacksonville Center
Tue 01:36:01 PM 32.1892 -83.1478 141° Southeast 431 496 32,000 100 Climbing Jacksonville Center
Tue 01:37:01 PM 32.0956 -83.0544 140° Southeast 436 502 32,000  Level Jacksonville Center
Tue 01:38:01 PM 32.0017 -82.9611 140° Southeast 436 502 32,000  Level Jacksonville Center
Tue 01:39:01 PM 31.9078 -82.8731 141° Southeast 441 507 32,000  Level Jacksonville Center
Tue 01:40:01 PM 31.8136 -82.7778 139° Southeast 441 507 32,000  Level Jacksonville Center
Tue 01:41:01 PM 31.7194 -82.6850 140° Southeast 441 507 32,000  Level Jacksonville Center
Tue 01:42:01 PM 31.6233 -82.5950 141° Southeast 441 507 32,000  Level Jacksonville Center
Tue 01:43:01 PM 31.5292 -82.5050 141° Southeast 441 507 32,000  Level Jacksonville Center
Tue 01:44:01 PM 31.4286 -82.4203 144° Southeast 441 507 32,000  Level Jacksonville Center
Tue 01:45:01 PM 31.3303 -82.3406 145° Southeast 441 507 32,000  Level Jacksonville Center
Tue 01:46:01 PM 31.2294 -82.2561 144° Southeast 441 507 32,000  Level Jacksonville Center
Tue 01:47:01 PM 31.1331 -82.1717 143° Southeast 441 507 32,000  Level Jacksonville Center
Tue 01:48:01 PM 31.0322 -82.0875 144° Southeast 441 507 32,000  Level Jacksonville Center
Tue 01:49:01 PM 30.9336 -82.0061 145° Southeast 441 507 32,000  Level Jacksonville Center
Tue 01:50:01 PM 30.8328 -81.9225 145° Southeast 441 507 32,000  Level Jacksonville Center
Tue 01:51:01 PM 30.7342 -81.8389 144° Southeast 441 507 32,000  Level Jacksonville Center
Tue 01:52:01 PM 30.6331 -81.7531 144° Southeast 447 514 32,000  Level Jacksonville Center
Tue 01:53:01 PM 30.5342 -81.6697 144° Southeast 447 514 32,000  Level Jacksonville Center
Tue 01:54:01 PM 30.4331 -81.5867 145° Southeast 447 514 32,000  Level Jacksonville Center
Tue 01:55:01 PM 30.3425 -81.5158 146° Southeast 447 514 32,000  Level Jacksonville Center
Tue 01:56:01 PM 30.2414 -81.4331 145° Southeast 447 514 32,000  Level Jacksonville Center
Tue 01:57:01 PM 30.1403 -81.3506 145° Southeast 447 514 32,000  Level Jacksonville Center
Tue 01:58:01 PM 30.0392 -81.2683 145° Southeast 447 514 32,000  Level Jacksonville Center
Tue 01:59:01 PM 29.9397 -81.1861 144° Southeast 447 514 32,000  Level Jacksonville Center
Tue 02:00:01 PM 29.8344 -81.1064 147° Southeast 447 514 32,000  Level Jacksonville Center
Tue 02:01:01 PM 29.7167 -81.0561 160° South 447 514 32,000 -800 Level Jacksonville Center
Tue 02:02:01 PM 29.5933 -81.0319 170° South 447 514 30,400 -2,250 Descending Jacksonville Center
Tue 02:03:01 PM 29.4697 -80.9986 167° South 452 520 27,500 -2,600 Descending Jacksonville Center
Tue 02:04:01 PM 29.3481 -80.9653 167° South 452 520 25,200 -2,750 Descending Jacksonville Center
Tue 02:05:01 PM 29.2286 -80.9342 167° South 447 514 22,000 -3,150 Descending Jacksonville Center
Tue 02:06:01 PM 29.1153 -80.9033 167° South 437 503 18,900 -2,450 Descending Jacksonville Center
Tue 02:07:01 PM 29.0086 -80.8792 169° South 412 474 17,100 -1,900 Descending Jacksonville Center
Tue 02:08:01 PM 28.9081 -80.8553 168° South 388 447 15,100 -1,846 Descending Jacksonville Center
Tue 02:08:45 PM 28.8167 -80.8500 177° South 371 427 13,900 -1,347 Descending Orlando TRACON
Tue 02:09:39 PM 28.7333 -80.8667 190° South 371 427 12,900 -1,211 Descending Orlando TRACON
Tue 02:10:39 PM 28.6333 -80.8667 180° South 330 380 11,600 -1,438 Descending Orlando TRACON
Tue 02:11:40 PM 28.5500 -80.8667 180° South 296 341 10,000 -1,934 Descending Orlando TRACON
Tue 02:12:40 PM 28.4667 -80.8833 190° South 286 329 7,700 -2,190 Descending Orlando TRACON
Tue 02:13:46 PM 28.3833 -80.8667 170° South 250 288 5,400 -1,890 Descending Orlando TRACON
Tue 02:14:47 PM 28.3167 -80.8333 156° South 241 277 3,700 -1,701 Descending Orlando TRACON
Tue 02:15:53 PM 28.2500 -80.8167 168° South 246 283 1,800 -1,105 Descending Orlando TRACON
Tue 02:16:41 PM 28.2000 -80.8000 164° South 196 226 1,600 -125 Descending Orlando TRACON
Tue 02:17:29 PM 28.1667 -80.7833 156° South 211 243 1,600  Level Orlando TRACON

Login

Don't have an account? Register now (free) for customized features, flight alerts, and more!